Time;durP1;ratioP1;P1;durP2;ratioP2;P2;SDS_P1;SDS_P2;PMS_P1;PMS_P2;Temp;Humidity;BMP_temperature;BMP_pressure;BME280_temperature;BME280_humidity;BME280_pressure;Samples;Min_cycle;Max_cycle;Signal;HPM_P1;HPM_P2
2022/03/07 00:01:25;;;;;;;13.05;8.55;;;-0.70;99.90;;;;;;5059444;28;20206;-79
2022/03/07 00:03:52;;;;;;;15.52;7.82;;;-0.70;99.90;;;;;;5058366;28;20215;-80
2022/03/07 00:06:19;;;;;;;12.07;8.48;;;-0.70;99.90;;;;;;5058519;28;20206;-82
2022/03/07 00:08:45;;;;;;;10.07;7.25;;;-0.70;99.90;;;;;;5058230;28;20665;-80
2022/03/07 00:11:13;;;;;;;12.23;7.93;;;-0.70;99.90;;;;;;5052325;28;20291;-79
2022/03/07 00:13:41;;;;;;;10.63;8.48;;;-0.60;99.90;;;;;;5059811;28;20220;-78
2022/03/07 00:16:08;;;;;;;11.27;7.95;;;-0.60;99.90;;;;;;5059779;28;20219;-79
2022/03/07 00:18:34;;;;;;;10.48;8.45;;;-0.60;99.90;;;;;;5059940;28;20215;-77
2022/03/07 00:21:01;;;;;;;10.82;7.80;;;-0.60;99.90;;;;;;5063535;28;20717;-80
2022/03/07 00:23:28;;;;;;;12.25;8.68;;;-0.60;99.90;;;;;;5062871;28;20216;-79
2022/03/07 00:25:55;;;;;;;14.45;8.07;;;-0.60;99.90;;;;;;5062262;28;20205;-81
2022/03/07 00:28:21;;;;;;;14.48;10.20;;;-0.50;99.90;;;;;;5061399;28;20218;-80
2022/03/07 00:30:50;;;;;;;11.27;8.00;;;-0.50;99.90;;;;;;5061689;28;20592;-80
2022/03/07 00:33:17;;;;;;;10.82;8.13;;;-0.50;99.90;;;;;;5061680;28;20239;-80
2022/03/07 00:35:44;;;;;;;15.70;8.82;;;-0.50;99.90;;;;;;5062445;28;20227;-82
2022/03/07 00:38:11;;;;;;;12.80;9.50;;;-0.50;99.90;;;;;;5062220;28;20204;-79
2022/03/07 00:40:38;;;;;;;15.88;8.82;;;-0.50;99.90;;;;;;5064708;28;20203;-79
2022/03/07 00:43:07;;;;;;;12.98;8.77;;;-0.50;99.90;;;;;;5063427;28;20204;-79
2022/03/07 00:45:35;;;;;;;14.25;8.93;;;-0.50;99.90;;;;;;5063857;28;20277;-77
2022/03/07 00:48:03;;;;;;;13.75;9.20;;;-0.50;99.90;;;;;;5065153;28;20201;-79
2022/03/07 00:50:30;;;;;;;15.38;10.10;;;-0.40;99.90;;;;;;5084827;28;20210;-79
2022/03/07 00:52:57;;;;;;;13.95;9.00;;;-0.50;99.90;;;;;;5084324;28;20204;-78
2022/03/07 00:55:24;;;;;;;12.07;8.30;;;-0.40;99.90;;;;;;5084008;28;20229;-79
2022/03/07 00:57:51;;;;;;;14.65;10.13;;;-0.40;99.90;;;;;;5065827;28;20221;-79
2022/03/07 01:00:18;;;;;;;13.80;8.77;;;-0.40;99.90;;;;;;5064613;28;20219;-80
2022/03/07 01:02:45;;;;;;;11.15;7.55;;;-0.40;99.90;;;;;;5061732;28;20206;-82
2022/03/07 01:05:13;;;;;;;11.15;7.80;;;-0.40;99.90;;;;;;5058545;28;20672;-78
2022/03/07 01:07:40;;;;;;;14.75;9.00;;;-0.40;99.90;;;;;;5062583;28;20206;-79
2022/03/07 01:10:07;;;;;;;11.38;8.75;;;-0.40;99.90;;;;;;5060082;28;20295;-81
2022/03/07 01:12:34;;;;;;;12.38;8.43;;;-0.40;99.90;;;;;;5060923;28;20267;-80
2022/03/07 01:15:01;;;;;;;13.45;8.32;;;-0.50;99.90;;;;;;5060723;28;20232;-81
2022/03/07 01:17:28;;;;;;;13.02;9.57;;;-0.40;99.90;;;;;;5060301;28;20601;-82
2022/03/07 01:19:54;;;;;;;14.65;8.85;;;-0.40;99.90;;;;;;5060960;28;20197;-80
2022/03/07 01:22:23;;;;;;;12.23;8.90;;;-0.40;99.90;;;;;;5061053;28;20216;-81
2022/03/07 01:24:49;;;;;;;13.82;9.20;;;-0.50;99.90;;;;;;5059290;28;20295;-80
2022/03/07 01:27:16;;;;;;;14.80;9.13;;;-0.50;99.90;;;;;;5059782;28;20652;-81
2022/03/07 01:29:43;;;;;;;12.75;8.70;;;-0.50;99.90;;;;;;5058347;28;20211;-81
2022/03/07 01:32:10;;;;;;;12.88;8.40;;;-0.40;99.90;;;;;;5058485;28;20203;-80
2022/03/07 01:34:37;;;;;;;15.90;9.35;;;-0.40;99.90;;;;;;5058538;28;20235;-80
2022/03/07 01:37:04;;;;;;;13.15;9.48;;;-0.40;99.90;;;;;;5059974;28;20254;-82
2022/03/07 01:39:32;;;;;;;12.95;9.77;;;-0.40;99.90;;;;;;5059951;28;20639;-80
2022/03/07 01:41:59;;;;;;;13.23;9.32;;;-0.40;99.90;;;;;;5059868;28;20271;-82
2022/03/07 01:44:28;;;;;;;13.70;10.60;;;-0.30;99.90;;;;;;5059646;28;20224;-81
2022/03/07 01:46:56;;;;;;;15.65;9.82;;;-0.30;99.90;;;;;;5059679;28;20208;-81
2022/03/07 01:49:23;;;;;;;17.65;10.05;;;-0.30;99.90;;;;;;5039839;28;20254;-79
2022/03/07 01:51:51;;;;;;;13.93;10.55;;;-0.20;99.90;;;;;;5039191;28;20660;-80
2022/03/07 01:54:20;;;;;;;12.65;9.45;;;-0.20;99.90;;;;;;5049528;28;20291;-80
2022/03/07 01:56:50;;;;;;;14.48;10.23;;;-0.20;99.90;;;;;;5059452;28;20730;-80
2022/03/07 01:59:18;;;;;;;16.10;10.20;;;-0.20;99.90;;;;;;5059497;28;20737;-81
2022/03/07 02:01:45;;;;;;;15.65;11.13;;;-0.10;99.90;;;;;;5060427;28;20204;-82
2022/03/07 02:04:12;;;;;;;14.80;11.10;;;0.00;99.90;;;;;;5060578;28;20228;-82
2022/03/07 02:06:40;;;;;;;14.43;10.18;;;0.10;99.90;;;;;;5060993;28;20689;-83
2022/03/07 02:09:08;;;;;;;13.60;9.65;;;0.10;99.90;;;;;;5060451;28;20207;-82
2022/03/07 02:11:35;;;;;;;17.38;8.93;;;0.20;99.90;;;;;;5061152;28;20247;-80
2022/03/07 02:14:13;;;;;;;14.45;11.38;;;0.30;99.90;;;;;;5060616;28;20592;-81
2022/03/07 02:16:40;;;;;;;13.65;9.75;;;0.30;99.90;;;;;;5061337;28;20264;-82
2022/03/07 02:19:07;;;;;;;15.30;9.90;;;0.40;99.90;;;;;;5061212;28;20207;-81
2022/03/07 02:21:35;;;;;;;12.43;9.95;;;0.40;99.90;;;;;;5061741;28;20224;-80
2022/03/07 02:24:04;;;;;;;15.80;10.35;;;0.50;99.90;;;;;;5061426;28;20216;-79
2022/03/07 02:26:31;;;;;;;13.63;9.98;;;0.40;99.90;;;;;;5061785;28;20292;-82
2022/03/07 02:28:58;;;;;;;12.68;9.07;;;0.60;99.90;;;;;;5060718;28;20283;-81
2022/03/07 02:31:25;;;;;;;22.15;10.45;;;0.60;99.90;;;;;;5062656;28;20215;-81
2022/03/07 02:33:52;;;;;;;12.32;8.88;;;0.60;99.90;;;;;;5060718;28;20232;-81
2022/03/07 02:36:19;;;;;;;11.05;8.25;;;0.70;99.90;;;;;;5060908;28;20608;-82
2022/03/07 02:38:46;;;;;;;14.30;9.10;;;0.70;99.90;;;;;;5061384;28;20291;-79
2022/03/07 02:41:14;;;;;;;14.07;9.95;;;0.80;99.90;;;;;;5059913;28;20289;-82
2022/03/07 02:43:41;;;;;;;12.48;9.15;;;0.80;99.90;;;;;;5060107;28;20235;-80
2022/03/07 02:46:08;;;;;;;11.10;8.80;;;0.90;99.90;;;;;;5060967;28;20577;-82
2022/03/07 02:48:34;;;;;;;16.63;9.30;;;0.90;99.90;;;;;;5060385;28;20204;-80
2022/03/07 02:51:01;;;;;;;11.88;8.35;;;0.90;99.90;;;;;;5059112;28;20208;-80
2022/03/07 02:53:28;;;;;;;13.45;9.10;;;1.00;99.90;;;;;;5060087;28;20212;-80
2022/03/07 02:55:55;;;;;;;11.82;8.52;;;1.00;99.90;;;;;;5059574;28;20542;-81
2022/03/07 02:58:23;;;;;;;13.27;8.80;;;1.10;99.90;;;;;;5060646;28;20236;-78
2022/03/07 03:00:50;;;;;;;12.93;7.75;;;1.10;99.90;;;;;;5058907;28;20211;-79
2022/03/07 03:03:17;;;;;;;12.73;8.40;;;1.10;99.90;;;;;;5059237;28;20235;-80
2022/03/07 03:05:44;;;;;;;13.00;8.90;;;1.20;99.90;;;;;;5060497;28;20239;-82
2022/03/07 03:08:11;;;;;;;11.87;8.20;;;1.20;99.90;;;;;;5059924;28;20234;-80
2022/03/07 03:10:38;;;;;;;11.75;8.23;;;1.20;99.90;;;;;;5060018;28;20975;-80
2022/03/07 03:13:05;;;;;;;11.05;8.00;;;1.30;99.90;;;;;;5059456;28;20292;-80
2022/03/07 03:15:33;;;;;;;15.47;8.20;;;1.20;99.90;;;;;;5059407;28;20228;-80
2022/03/07 03:17:59;;;;;;;13.60;10.07;;;1.20;99.90;;;;;;5060440;28;20487;-80
2022/03/07 03:20:26;;;;;;;10.00;8.33;;;1.30;99.90;;;;;;5061177;28;20225;-81
2022/03/07 03:22:53;;;;;;;11.57;8.30;;;1.30;99.90;;;;;;5060462;28;20434;-80
2022/03/07 03:25:21;;;;;;;11.07;8.15;;;1.30;99.90;;;;;;5059910;28;20602;-83
2022/03/07 03:27:47;;;;;;;11.80;8.73;;;1.30;99.90;;;;;;5060470;28;20225;-79
2022/03/07 03:30:15;;;;;;;14.50;9.90;;;1.30;99.90;;;;;;5059034;28;20451;-81
2022/03/07 03:32:43;;;;;;;10.98;8.43;;;1.20;99.90;;;;;;5060099;28;20639;-79
2022/03/07 03:35:11;;;;;;;12.85;9.65;;;1.30;99.90;;;;;;5059278;28;20250;-79
2022/03/07 03:37:38;;;;;;;11.67;7.50;;;1.30;99.90;;;;;;5060339;28;20292;-80
2022/03/07 03:40:07;;;;;;;10.48;7.80;;;1.30;99.90;;;;;;5059327;28;20459;-79
2022/03/07 03:42:34;;;;;;;11.03;8.17;;;1.20;99.90;;;;;;5058977;28;20208;-82
2022/03/07 03:45:00;;;;;;;11.60;8.57;;;1.20;99.90;;;;;;5059518;28;20480;-81
2022/03/07 03:47:27;;;;;;;15.75;9.38;;;1.30;99.90;;;;;;5059776;28;20204;-81
2022/03/07 03:49:55;;;;;;;12.90;8.27;;;1.40;99.90;;;;;;5059344;28;20233;-81
2022/03/07 03:52:23;;;;;;;11.57;7.90;;;1.20;99.90;;;;;;5060752;28;20445;-80
2022/03/07 03:54:50;;;;;;;11.27;8.13;;;1.30;99.90;;;;;;5061801;28;20254;-81
2022/03/07 03:57:16;;;;;;;13.57;8.20;;;1.30;99.90;;;;;;5064302;28;20217;-82
2022/03/07 03:59:43;;;;;;;11.87;7.43;;;1.40;99.90;;;;;;5064257;28;20497;-80
2022/03/07 04:02:10;;;;;;;10.10;7.90;;;1.30;99.90;;;;;;5063873;28;20448;-79
2022/03/07 04:04:37;;;;;;;12.60;9.40;;;1.20;99.90;;;;;;5062736;28;20476;-80
2022/03/07 04:07:05;;;;;;;10.30;7.72;;;1.20;99.90;;;;;;5064618;28;20454;-79
2022/03/07 04:09:32;;;;;;;9.80;7.60;;;1.20;99.90;;;;;;5064328;28;20291;-81
2022/03/07 04:11:59;;;;;;;8.50;6.82;;;1.20;99.90;;;;;;5064029;28;20554;-78
2022/03/07 04:14:26;;;;;;;11.45;8.18;;;1.20;99.90;;;;;;5062346;28;20743;-80
2022/03/07 04:16:52;;;;;;;13.23;7.97;;;1.20;99.90;;;;;;5063113;28;20229;-81
2022/03/07 04:19:19;;;;;;;10.77;6.77;;;1.30;99.90;;;;;;5062373;28;20201;-80
2022/03/07 04:21:46;;;;;;;12.63;6.83;;;1.20;99.90;;;;;;5062024;28;20463;-78
2022/03/07 04:24:15;;;;;;;12.80;7.55;;;1.20;99.90;;;;;;5060444;28;20481;-81
2022/03/07 04:26:42;;;;;;;10.38;7.40;;;1.30;99.90;;;;;;5062053;28;20217;-79
2022/03/07 04:29:10;;;;;;;11.73;8.33;;;1.20;99.90;;;;;;5060085;28;20201;-81
2022/03/07 04:31:37;;;;;;;11.90;7.60;;;1.30;99.90;;;;;;5061092;28;20478;-80
2022/03/07 04:34:04;;;;;;;13.70;7.77;;;1.30;99.90;;;;;;5060756;28;20884;-81
2022/03/07 04:36:32;;;;;;;11.03;8.10;;;1.40;99.90;;;;;;5061841;28;20538;-81
2022/03/07 04:38:58;;;;;;;12.07;7.77;;;1.40;99.90;;;;;;5061040;28;20522;-79
2022/03/07 04:41:27;;;;;;;12.27;8.30;;;1.40;99.90;;;;;;5061007;28;20482;-81
2022/03/07 04:43:54;;;;;;;12.15;7.07;;;1.30;99.90;;;;;;5060129;28;20970;-80
2022/03/07 04:46:21;;;;;;;12.07;7.03;;;1.40;99.90;;;;;;5061127;28;20601;-81
2022/03/07 04:48:47;;;;;;;10.35;7.18;;;1.50;99.90;;;;;;5060799;28;20458;-80
2022/03/07 04:51:15;;;;;;;12.40;8.00;;;1.50;99.90;;;;;;5060812;28;20261;-82
2022/03/07 04:53:41;;;;;;;8.75;6.28;;;1.60;99.90;;;;;;5060591;28;20490;-81
2022/03/07 04:56:09;;;;;;;9.60;6.67;;;1.50;99.90;;;;;;5060711;28;20201;-82
2022/03/07 04:58:38;;;;;;;10.60;7.50;;;1.50;99.90;;;;;;5061192;28;20457;-81
2022/03/07 05:01:05;;;;;;;8.90;5.97;;;1.60;99.90;;;;;;5059914;28;20212;-80
2022/03/07 05:03:32;;;;;;;8.97;7.00;;;1.50;99.90;;;;;;5060368;28;20463;-79
2022/03/07 05:05:59;;;;;;;10.43;6.60;;;1.50;99.90;;;;;;5061019;28;20509;-79
2022/03/07 05:08:26;;;;;;;10.05;6.95;;;1.50;99.90;;;;;;5060782;28;20459;-81
2022/03/07 05:10:53;;;;;;;8.90;5.70;;;1.50;99.90;;;;;;5060690;28;20209;-79
2022/03/07 05:13:20;;;;;;;11.17;7.07;;;1.50;99.90;;;;;;5060471;28;20482;-80
2022/03/07 05:15:48;;;;;;;8.13;6.10;;;1.50;99.90;;;;;;5061011;28;20459;-80
2022/03/07 05:18:15;;;;;;;9.63;6.77;;;1.60;99.90;;;;;;5060960;28;20473;-80
2022/03/07 05:20:42;;;;;;;10.00;6.60;;;1.50;99.90;;;;;;5060185;28;20455;-80
2022/03/07 05:23:09;;;;;;;10.83;7.10;;;1.50;99.90;;;;;;5060395;28;20550;-82
2022/03/07 05:25:36;;;;;;;10.03;7.00;;;1.50;99.90;;;;;;5060073;28;20488;-79
2022/03/07 05:28:03;;;;;;;11.30;6.20;;;1.50;99.90;;;;;;5059282;28;20458;-79
2022/03/07 05:30:29;;;;;;;9.40;7.10;;;1.50;99.90;;;;;;5060902;28;20535;-82
2022/03/07 05:32:58;;;;;;;9.50;6.63;;;1.50;99.90;;;;;;5058017;28;20455;-81
2022/03/07 05:35:24;;;;;;;9.88;7.00;;;1.50;99.90;;;;;;5058886;28;20520;-78
2022/03/07 05:37:51;;;;;;;12.00;6.63;;;1.40;99.90;;;;;;5058171;28;20228;-79
2022/03/07 05:40:19;;;;;;;8.90;7.03;;;1.40;99.90;;;;;;5058511;28;20463;-79
2022/03/07 05:42:45;;;;;;;10.07;7.50;;;1.40;99.90;;;;;;5058551;28;20215;-78
2022/03/07 05:45:14;;;;;;;10.30;7.67;;;1.40;99.90;;;;;;5057437;28;20464;-79
2022/03/07 05:47:42;;;;;;;11.03;7.50;;;1.40;99.90;;;;;;5057772;28;20543;-79
2022/03/07 05:50:11;;;;;;;9.80;6.90;;;1.50;99.90;;;;;;5056061;28;20456;-79
2022/03/07 05:52:38;;;;;;;10.73;7.05;;;1.50;99.90;;;;;;5059462;28;20210;-80
2022/03/07 05:55:06;;;;;;;10.97;7.17;;;1.50;99.90;;;;;;5058369;28;20213;-79
2022/03/07 05:57:33;;;;;;;11.70;6.95;;;1.50;99.90;;;;;;5057385;28;20488;-80
2022/03/07 05:59:59;;;;;;;10.40;7.50;;;1.60;99.90;;;;;;5059047;28;20204;-79
2022/03/07 06:02:26;;;;;;;11.10;7.57;;;1.60;99.90;;;;;;5057606;28;20452;-79
2022/03/07 06:04:53;;;;;;;11.07;7.05;;;1.60;99.90;;;;;;5056115;28;20443;-79
2022/03/07 06:07:22;;;;;;;19.17;7.90;;;1.60;99.90;;;;;;5058133;28;20232;-79
2022/03/07 06:09:48;;;;;;;9.70;6.70;;;1.60;99.90;;;;;;5058678;28;20455;-79
2022/03/07 06:12:15;;;;;;;9.25;7.40;;;1.60;99.90;;;;;;5060678;28;20463;-80
2022/03/07 06:14:42;;;;;;;14.05;6.53;;;1.60;99.90;;;;;;5059828;28;20236;-80
2022/03/07 06:17:09;;;;;;;11.33;6.83;;;1.60;99.90;;;;;;5050194;28;20216;-79
2022/03/07 06:19:35;;;;;;;11.43;7.88;;;1.60;99.90;;;;;;5060329;28;20480;-78
2022/03/07 06:22:02;;;;;;;10.93;7.90;;;1.60;99.90;;;;;;5058629;28;20202;-79
2022/03/07 06:24:31;;;;;;;10.10;6.93;;;1.50;99.90;;;;;;5053936;28;20490;-79
2022/03/07 06:27:00;;;;;;;10.57;7.63;;;1.60;99.90;;;;;;5056510;28;20452;-79
2022/03/07 06:29:28;;;;;;;14.00;6.77;;;1.50;99.90;;;;;;5055163;28;20473;-80
2022/03/07 06:31:55;;;;;;;11.70;7.37;;;1.60;99.90;;;;;;5058009;28;20542;-79
2022/03/07 06:34:22;;;;;;;10.37;7.00;;;1.70;99.90;;;;;;5058234;28;20468;-80
2022/03/07 06:36:50;;;;;;;9.57;7.27;;;1.70;99.90;;;;;;5053941;28;20459;-81
2022/03/07 06:39:17;;;;;;;15.87;7.40;;;1.70;99.90;;;;;;5050463;28;20475;-80
2022/03/07 06:41:48;;;;;;;9.90;7.80;;;1.80;99.90;;;;;;5058622;28;20821;-82
2022/03/07 06:44:14;;;;;;;12.97;7.80;;;1.90;99.90;;;;;;5056161;28;20472;-79
2022/03/07 06:46:41;;;;;;;12.80;8.00;;;1.90;99.90;;;;;;5058200;28;20423;-79
2022/03/07 06:49:10;;;;;;;11.50;7.37;;;2.00;99.90;;;;;;5055925;28;20448;-82
2022/03/07 06:51:37;;;;;;;11.03;7.47;;;2.00;99.90;;;;;;5057107;28;20539;-80
2022/03/07 06:54:04;;;;;;;12.40;7.33;;;2.00;99.90;;;;;;5060533;28;20984;-81
2022/03/07 06:56:31;;;;;;;8.57;6.90;;;2.10;99.90;;;;;;5061451;28;20531;-80
2022/03/07 06:58:59;;;;;;;11.27;7.37;;;2.20;99.90;;;;;;5061352;28;20487;-79
2022/03/07 07:01:26;;;;;;;12.33;8.17;;;2.30;99.90;;;;;;5063910;28;20452;-81
2022/03/07 07:03:53;;;;;;;10.20;7.30;;;2.30;99.90;;;;;;5059243;28;20483;-82
2022/03/07 07:06:20;;;;;;;10.07;7.10;;;2.40;99.90;;;;;;5062542;28;20506;-81
2022/03/07 07:08:46;;;;;;;13.13;7.00;;;2.50;99.90;;;;;;5063046;28;20451;-80
2022/03/07 07:11:13;;;;;;;8.27;6.70;;;2.40;99.90;;;;;;5063417;28;20458;-82
2022/03/07 07:13:40;;;;;;;8.57;7.27;;;2.60;99.90;;;;;;5062471;28;20495;-83
2022/03/07 07:16:11;;;;;;;13.70;7.83;;;2.80;99.90;;;;;;5063035;28;20459;-83
2022/03/07 07:18:38;;;;;;;12.60;7.43;;;2.90;99.90;;;;;;5061683;28;20563;-82
2022/03/07 07:21:05;;;;;;;11.63;6.70;;;3.00;99.90;;;;;;5062953;28;20515;-81
2022/03/07 07:23:32;;;;;;;9.00;6.30;;;3.10;99.90;;;;;;5062868;28;20456;-83
2022/03/07 07:25:59;;;;;;;10.20;6.87;;;3.20;99.90;;;;;;5064686;28;20456;-80
2022/03/07 07:28:25;;;;;;;10.50;7.00;;;3.40;99.90;;;;;;5071773;28;20441;-79
2022/03/07 07:30:53;;;;;;;12.37;6.73;;;3.50;99.90;;;;;;5074113;28;20472;-81
2022/03/07 07:33:21;;;;;;;8.47;6.67;;;3.70;99.90;;;;;;5073550;28;20456;-81
2022/03/07 07:35:48;;;;;;;12.00;8.03;;;3.80;99.90;;;;;;5074982;28;20455;-80
2022/03/07 07:38:15;;;;;;;10.23;7.07;;;3.90;99.90;;;;;;5075622;28;21074;-81
2022/03/07 07:40:41;;;;;;;12.73;7.03;;;3.90;99.90;;;;;;5069140;28;20455;-81
2022/03/07 07:43:08;;;;;;;9.80;6.77;;;4.00;99.90;;;;;;5066553;28;20456;-81
2022/03/07 07:45:35;;;;;;;11.50;7.30;;;4.00;99.90;;;;;;5065490;28;20472;-81
2022/03/07 07:48:02;;;;;;;13.10;7.73;;;3.80;99.90;;;;;;5066321;28;20446;-80
2022/03/07 07:50:30;;;;;;;9.77;6.30;;;4.00;99.90;;;;;;5067519;28;20450;-81
2022/03/07 07:52:57;;;;;;;11.10;6.00;;;3.80;99.90;;;;;;5064946;28;20446;-80
2022/03/07 07:55:24;;;;;;;11.87;6.90;;;3.70;99.90;;;;;;5064317;28;21056;-80
2022/03/07 07:57:51;;;;;;;14.40;6.90;;;3.50;99.90;;;;;;5060565;28;20484;-81
2022/03/07 08:00:20;;;;;;;9.43;6.90;;;3.40;99.90;;;;;;5063818;28;20546;-79
2022/03/07 08:02:47;;;;;;;12.30;7.00;;;3.30;99.90;;;;;;5043622;28;20455;-80
2022/03/07 08:05:14;;;;;;;7.90;5.73;;;3.30;99.90;;;;;;5047649;28;20471;-80
2022/03/07 08:07:43;;;;;;;14.40;7.50;;;3.20;99.90;;;;;;5064022;28;20456;-80
2022/03/07 08:10:10;;;;;;;10.23;5.57;;;3.10;99.90;;;;;;5063523;28;20458;-81
2022/03/07 08:12:37;;;;;;;7.27;5.83;;;3.10;99.90;;;;;;5060439;28;20504;-80
2022/03/07 08:15:05;;;;;;;11.37;5.50;;;3.00;99.90;;;;;;5061916;28;20468;-80
2022/03/07 08:17:32;;;;;;;10.13;6.22;;;3.00;99.90;;;;;;5061667;28;20470;-80
2022/03/07 08:19:59;;;;;;;8.53;4.90;;;3.10;99.90;;;;;;5062418;28;20226;-79
2022/03/07 08:22:26;;;;;;;8.33;4.97;;;3.40;99.90;;;;;;5061349;28;20501;-81
2022/03/07 08:24:54;;;;;;;8.60;4.63;;;3.60;99.90;;;;;;5060149;28;20566;-81
2022/03/07 08:27:21;;;;;;;6.07;4.70;;;3.80;99.90;;;;;;5060844;28;20452;-81
2022/03/07 08:29:47;;;;;;;5.87;4.67;;;4.00;99.90;;;;;;5060945;28;20447;-80
2022/03/07 08:32:14;;;;;;;7.60;5.30;;;4.20;99.90;;;;;;5062307;28;20458;-79
2022/03/07 08:34:41;;;;;;;7.27;4.80;;;4.40;99.90;;;;;;5062750;28;20469;-78
2022/03/07 08:37:08;;;;;;;6.80;4.23;;;4.80;99.90;;;;;;5062280;28;20482;-80
2022/03/07 08:39:34;;;;;;;6.90;4.40;;;5.10;99.90;;;;;;5061148;28;20487;-81
2022/03/07 08:42:03;;;;;;;5.10;3.83;;;5.40;99.90;;;;;;5061831;28;20871;-79
2022/03/07 08:44:30;;;;;;;6.50;4.00;;;6.10;99.90;;;;;;5059707;28;20490;-79
2022/03/07 08:46:56;;;;;;;5.23;4.43;;;6.50;99.90;;;;;;5062527;28;20457;-81
2022/03/07 08:49:23;;;;;;;5.23;4.30;;;6.70;99.90;;;;;;5060972;28;20449;-80
2022/03/07 08:51:50;;;;;;;4.20;3.20;;;6.50;99.90;;;;;;5060684;28;20481;-80
2022/03/07 08:54:17;;;;;;;4.27;3.67;;;6.80;99.90;;;;;;5061342;28;20477;-80
2022/03/07 08:56:44;;;;;;;5.57;4.50;;;7.20;99.90;;;;;;5059895;28;20593;-78
2022/03/07 08:59:12;;;;;;;7.00;3.37;;;7.40;99.90;;;;;;5055358;28;20535;-77
2022/03/07 09:01:39;;;;;;;4.73;3.77;;;7.90;99.90;;;;;;5055660;28;20453;-76
2022/03/07 09:04:06;;;;;;;5.10;3.50;;;8.50;99.90;;;;;;5053355;28;20578;-77
2022/03/07 09:06:33;;;;;;;6.80;3.43;;;8.80;99.90;;;;;;5055753;28;20494;-78
2022/03/07 09:08:59;;;;;;;4.17;3.13;;;8.40;99.90;;;;;;5057049;28;20621;-79
2022/03/07 09:11:26;;;;;;;4.60;2.90;;;8.50;99.90;;;;;;5056579;28;20803;-78
2022/03/07 09:13:54;;;;;;;4.23;2.93;;;8.40;99.90;;;;;;5056866;28;20852;-79
2022/03/07 09:16:22;;;;;;;3.73;2.63;;;8.50;99.90;;;;;;5056629;28;20457;-82
2022/03/07 09:18:49;;;;;;;6.00;2.40;;;9.00;99.90;;;;;;5058114;28;20484;-81
2022/03/07 09:21:15;;;;;;;3.67;2.20;;;9.30;99.90;;;;;;5057268;28;20466;-80
2022/03/07 09:23:42;;;;;;;4.20;2.63;;;9.60;99.90;;;;;;5051838;28;21072;-79
2022/03/07 09:26:10;;;;;;;3.43;2.00;;;10.20;99.90;;;;;;5056167;28;20465;-78
2022/03/07 09:28:37;;;;;;;3.97;3.00;;;10.10;99.90;;;;;;5048706;28;20486;-79
2022/03/07 09:31:04;;;;;;;3.93;2.53;;;10.00;99.90;;;;;;5055598;28;20467;-80
2022/03/07 09:33:32;;;;;;;3.57;1.90;;;9.90;99.90;;;;;;5056484;28;20454;-80
2022/03/07 09:35:59;;;;;;;4.03;2.20;;;10.50;99.90;;;;;;5057256;28;21191;-79
2022/03/07 09:38:27;;;;;;;3.80;2.17;;;11.30;99.90;;;;;;5053016;28;20469;-79
2022/03/07 09:40:55;;;;;;;5.50;2.27;;;12.10;98.90;;;;;;5053085;28;20463;-82
2022/03/07 09:43:23;;;;;;;3.77;2.20;;;12.40;95.40;;;;;;5062729;28;20833;-79
2022/03/07 09:45:50;;;;;;;3.80;2.07;;;13.60;93.80;;;;;;5059117;28;21002;-80
2022/03/07 09:48:17;;;;;;;3.17;1.90;;;14.30;90.90;;;;;;5053210;28;20448;-80
2022/03/07 09:50:46;;;;;;;3.50;1.87;;;14.70;86.30;;;;;;5069974;28;20445;-79
2022/03/07 09:53:16;;;;;;;5.50;2.20;;;15.30;79.80;;;;;;5071813;28;20450;-80
2022/03/07 09:55:43;;;;;;;13.83;2.67;;;16.30;78.20;;;;;;5066052;28;20461;-81
2022/03/07 09:58:10;;;;;;;4.20;2.13;;;15.60;70.60;;;;;;5068974;28;20490;-81
2022/03/07 10:00:40;;;;;;;3.10;1.80;;;15.60;68.80;;;;;;5073257;28;20515;-82
2022/03/07 10:03:09;;;;;;;3.23;1.90;;;15.50;69.40;;;;;;5067772;28;20714;-82
2022/03/07 10:05:38;;;;;;;4.40;2.03;;;15.70;66.50;;;;;;5066376;28;20479;-83
2022/03/07 10:08:07;;;;;;;4.60;2.40;;;16.20;65.70;;;;;;5055283;28;20466;-81
2022/03/07 10:10:38;;;;;;;5.37;2.20;;;15.10;63.20;;;;;;5056826;28;20457;-80
2022/03/07 10:13:09;;;;;;;3.53;2.20;;;15.40;65.70;;;;;;5056340;28;20547;-81
2022/03/07 10:15:36;;;;;;;4.03;2.17;;;15.70;65.00;;;;;;5056727;28;20478;-82
2022/03/07 10:18:04;;;;;;;6.97;2.17;;;15.10;63.70;;;;;;5058276;28;20461;-80
2022/03/07 10:20:31;;;;;;;7.83;3.07;;;14.90;63.70;;;;;;5059223;28;20588;-81
2022/03/07 10:23:00;;;;;;;6.60;2.60;;;14.90;64.60;;;;;;5056448;28;20457;-79
2022/03/07 10:25:31;;;;;;;4.30;2.47;;;15.20;63.00;;;;;;5054944;28;20489;-82
2022/03/07 10:28:01;;;;;;;3.97;2.60;;;15.00;62.60;;;;;;5053627;28;20464;-80
2022/03/07 10:30:32;;;;;;;3.37;2.27;;;15.70;62.50;;;;;;5057855;28;21000;-81
2022/03/07 10:33:00;;;;;;;3.20;2.10;;;16.40;61.00;;;;;;5046128;28;20451;-80
2022/03/07 10:35:29;;;;;;;4.90;2.50;;;16.60;58.10;;;;;;5064386;28;20844;-81
2022/03/07 10:37:58;;;;;;;4.57;2.50;;;17.10;58.00;;;;;;5056469;28;20472;-80
2022/03/07 10:40:26;;;;;;;4.20;2.13;;;17.40;57.50;;;;;;5056803;28;21066;-80
2022/03/07 10:42:54;;;;;;;3.20;1.90;;;18.00;57.50;;;;;;5057562;28;20521;-81
2022/03/07 10:45:22;;;;;;;3.43;2.37;;;18.10;56.70;;;;;;5057242;28;20464;-80
2022/03/07 10:47:54;;;;;;;4.30;2.37;;;18.30;53.60;;;;;;5056726;28;20821;-81
2022/03/07 10:50:22;;;;;;;4.43;2.60;;;17.70;54.50;;;;;;5057776;28;20451;-81
2022/03/07 10:52:52;;;;;;;4.20;2.37;;;18.10;54.80;;;;;;5057769;28;20467;-81
2022/03/07 10:55:24;;;;;;;6.50;2.80;;;19.60;54.10;;;;;;5052841;28;20509;-80
2022/03/07 10:57:51;;;;;;;4.30;2.07;;;19.70;52.40;;;;;;5055944;28;20815;-81
2022/03/07 11:00:21;;;;;;;4.50;2.50;;;19.50;52.30;;;;;;5053585;28;21029;-82
2022/03/07 11:02:49;;;;;;;6.57;2.20;;;20.20;52.90;;;;;;5055130;28;21067;-81
2022/03/07 11:05:18;;;;;;;4.83;2.47;;;21.30;52.60;;;;;;5053516;28;20474;-81
2022/03/07 11:07:47;;;;;;;3.20;2.23;;;21.70;50.90;;;;;;5054592;28;20459;-81
2022/03/07 11:10:15;;;;;;;4.13;2.30;;;20.00;47.70;;;;;;5054753;28;20452;-81
2022/03/07 11:12:42;;;;;;;3.10;1.93;;;21.20;50.00;;;;;;5054060;28;20545;-83
2022/03/07 11:15:10;;;;;;;2.90;1.97;;;21.60;48.80;;;;;;5055601;28;20471;-82
2022/03/07 11:17:40;;;;;;;3.67;2.53;;;21.80;47.40;;;;;;5054471;28;20463;-81
2022/03/07 11:20:10;;;;;;;3.60;2.23;;;21.20;46.30;;;;;;5036812;28;20485;-81
2022/03/07 11:22:46;;;;;;;3.27;2.03;;;21.00;47.90;;;;;;5033710;28;20470;-80
2022/03/07 11:25:16;;;;;;;3.40;2.20;;;20.90;46.50;;;;;;5033704;28;20484;-81
2022/03/07 11:27:43;;;;;;;3.60;2.60;;;20.50;45.20;;;;;;5033806;28;20494;-81
2022/03/07 11:30:18;;;;;;;4.37;2.50;;;21.20;46.90;;;;;;5050890;28;20447;-81
2022/03/07 11:32:50;;;;;;;4.00;2.50;;;22.20;46.80;;;;;;5054404;28;20520;-81
2022/03/07 11:35:17;;;;;;;5.00;2.70;;;21.00;46.80;;;;;;5050359;28;20460;-80
2022/03/07 11:37:44;;;;;;;7.00;2.60;;;21.20;45.80;;;;;;5056986;28;20440;-82
2022/03/07 11:40:20;;;;;;;4.83;2.33;;;21.00;46.70;;;;;;5056590;28;20490;-81
2022/03/07 11:42:49;;;;;;;5.03;2.60;;;20.70;46.30;;;;;;5055618;28;20445;-80
2022/03/07 11:45:22;;;;;;;5.33;3.13;;;21.40;45.40;;;;;;5055327;28;20475;-80
2022/03/07 11:47:53;;;;;;;4.70;2.67;;;21.20;45.90;;;;;;5049967;28;20451;-80
2022/03/07 11:50:22;;;;;;;4.53;2.60;;;21.60;43.60;;;;;;5054073;28;20448;-80
2022/03/07 11:52:50;;;;;;;3.83;3.00;;;22.10;45.80;;;;;;5053182;28;20492;-81
2022/03/07 11:55:19;;;;;;;5.10;3.57;;;23.10;45.50;;;;;;5054212;28;20517;-80
2022/03/07 11:57:48;;;;;;;4.53;2.50;;;22.80;45.60;;;;;;5053919;28;20444;-80
2022/03/07 12:00:22;;;;;;;3.67;2.43;;;22.50;45.00;;;;;;5053536;28;20495;-82
2022/03/07 12:02:52;;;;;;;3.40;2.33;;;23.20;44.70;;;;;;5055300;28;20438;-81
2022/03/07 12:05:27;;;;;;;4.27;3.20;;;23.90;42.50;;;;;;5054529;28;20499;-80
2022/03/07 12:08:07;;;;;;;3.80;2.33;;;22.70;44.50;;;;;;5055569;28;20452;-81
2022/03/07 12:10:38;;;;;;;5.27;3.10;;;23.40;44.20;;;;;;5050875;28;20448;-81
2022/03/07 12:13:22;;;;;;;4.67;2.87;;;23.30;42.60;;;;;;5055475;28;20539;-82
2022/03/07 12:15:53;;;;;;;6.07;3.30;;;22.80;42.00;;;;;;5057756;28;20933;-81
2022/03/07 12:18:28;;;;;;;3.93;2.90;;;21.60;42.60;;;;;;5060167;28;20443;-81
2022/03/07 12:20:56;;;;;;;7.03;2.67;;;22.10;43.00;;;;;;5058954;28;20489;-81
2022/03/07 12:23:26;;;;;;;4.27;2.50;;;21.90;43.60;;;;;;5056647;28;20456;-82
2022/03/07 12:26:01;;;;;;;4.43;2.47;;;23.00;45.10;;;;;;5054378;28;20986;-80
2022/03/07 12:28:43;;;;;;;3.73;2.70;;;23.30;43.60;;;;;;5045045;28;20456;-81
2022/03/07 12:31:12;;;;;;;4.23;2.60;;;24.40;42.40;;;;;;5047898;28;20564;-80
2022/03/07 12:33:44;;;;;;;7.10;2.90;;;24.10;41.60;;;;;;5056824;28;20475;-81
2022/03/07 12:36:25;;;;;;;5.17;2.83;;;24.10;42.00;;;;;;5055195;28;20544;-80
2022/03/07 12:38:53;;;;;;;4.20;3.17;;;24.70;40.90;;;;;;5057388;28;20456;-81
2022/03/07 12:41:22;;;;;;;5.83;2.73;;;23.30;39.40;;;;;;5051912;28;20559;-82
2022/03/07 12:44:12;;;;;;;3.90;2.37;;;24.20;41.70;;;;;;5054865;28;20476;-81
2022/03/07 12:46:39;;;;;;;4.23;2.97;;;24.60;39.30;;;;;;5052383;28;21023;-81
2022/03/07 12:49:07;;;;;;;4.53;2.63;;;24.70;40.80;;;;;;5057884;28;20459;-80